Time;durP1;ratioP1;P1;durP2;ratioP2;P2;SDS_P1;SDS_P2;PMS_P1;PMS_P2;Temp;Humidity;BMP_temperature;BMP_pressure;BME280_temperature;BME280_humidity;BME280_pressure;Samples;Min_cycle;Max_cycle;Signal;HPM_P1;HPM_P2
2022/07/20 00:00:32;;;;;;;4.70;0.90;;;21.30;46.80;;;;;;4973226;28;20046;-95
2022/07/20 00:03:11;;;;;;;1.85;0.63;;;21.30;47.00;;;;;;4978921;28;20103;-93
2022/07/20 00:05:42;;;;;;;2.78;0.77;;;21.20;47.20;;;;;;4983095;28;20043;-95
2022/07/20 00:08:09;;;;;;;2.88;0.60;;;21.10;47.20;;;;;;4978384;28;20031;-95
2022/07/20 00:13:21;;;;;;;2.63;0.52;;;21.10;47.30;;;;;;4981807;28;20045;-94
2022/07/20 00:15:47;;;;;;;7.65;0.75;;;21.10;47.40;;;;;;4980316;28;20414;-94
2022/07/20 00:18:13;;;;;;;1.75;0.52;;;21.10;47.60;;;;;;4986428;28;20027;-95
2022/07/20 00:20:39;;;;;;;3.25;0.88;;;21.00;47.50;;;;;;4976676;28;20034;-93
2022/07/20 00:23:05;;;;;;;2.03;0.63;;;21.00;47.70;;;;;;4976340;28;20031;-94
2022/07/20 00:25:31;;;;;;;6.15;1.13;;;21.00;47.90;;;;;;4976823;28;20082;-94
2022/07/20 00:27:56;;;;;;;12.32;0.90;;;21.00;48.10;;;;;;4974810;28;20231;-94
2022/07/20 00:30:22;;;;;;;3.10;0.90;;;21.00;48.10;;;;;;4973967;28;20019;-93
2022/07/20 00:32:48;;;;;;;5.43;0.80;;;21.10;48.10;;;;;;4976796;28;20125;-94
2022/07/20 00:35:15;;;;;;;3.28;0.93;;;21.10;48.10;;;;;;4976540;28;20527;-95
2022/07/20 00:37:42;;;;;;;1.75;0.50;;;21.20;47.80;;;;;;4973766;28;20030;-93
2022/07/20 00:40:09;;;;;;;6.38;0.80;;;21.20;47.70;;;;;;4974559;28;20034;-92
2022/07/20 00:42:35;;;;;;;2.17;0.70;;;21.30;47.60;;;;;;4974679;28;20423;-93
2022/07/20 00:45:02;;;;;;;2.47;0.52;;;21.30;47.70;;;;;;4991134;28;20035;-93
2022/07/20 00:47:28;;;;;;;5.40;0.82;;;21.30;47.60;;;;;;4982436;28;20038;-92
2022/07/20 00:49:54;;;;;;;6.25;0.60;;;21.30;48.10;;;;;;4975938;28;20113;-91
2022/07/20 00:52:19;;;;;;;4.78;0.98;;;21.30;47.20;;;;;;4973928;28;20085;-96
2022/07/20 00:54:48;;;;;;;2.63;0.70;;;21.40;47.30;;;;;;4974496;28;20053;-93
2022/07/20 00:57:14;;;;;;;6.65;0.70;;;21.40;47.30;;;;;;4975209;28;20115;-93
2022/07/20 00:59:39;;;;;;;6.82;0.73;;;21.30;47.60;;;;;;4974658;28;20047;-91
2022/07/20 01:02:05;;;;;;;2.33;0.73;;;21.30;47.70;;;;;;4975107;28;20074;-93
2022/07/20 01:04:31;;;;;;;11.63;0.82;;;21.30;47.80;;;;;;4975129;28;20069;-93
2022/07/20 01:06:56;;;;;;;7.20;1.00;;;21.30;48.10;;;;;;4975300;28;20046;-90
2022/07/20 01:09:22;;;;;;;3.17;0.68;;;21.30;47.70;;;;;;4974468;28;20030;-88
2022/07/20 01:11:48;;;;;;;6.82;0.90;;;21.20;47.70;;;;;;4974484;28;20031;-88
2022/07/20 01:14:14;;;;;;;9.82;1.17;;;21.20;47.80;;;;;;4973162;28;20125;-92
2022/07/20 01:16:39;;;;;;;6.45;1.40;;;21.10;47.90;;;;;;4973443;28;20125;-92
2022/07/20 01:19:06;;;;;;;3.38;1.02;;;21.10;47.90;;;;;;4973137;28;20411;-93
2022/07/20 01:21:33;;;;;;;2.53;0.75;;;21.00;47.80;;;;;;4973502;28;20030;-92
2022/07/20 01:23:59;;;;;;;4.15;0.75;;;21.00;47.90;;;;;;4972456;28;20487;-95
2022/07/20 01:26:25;;;;;;;1.90;0.80;;;21.00;48.10;;;;;;4973203;28;20117;-91
2022/07/20 01:28:51;;;;;;;8.63;1.20;;;21.00;48.20;;;;;;4972709;28;20091;-92
2022/07/20 01:31:16;;;;;;;6.68;1.13;;;21.00;48.30;;;;;;4979298;28;20033;-93
2022/07/20 01:33:42;;;;;;;7.78;0.77;;;21.00;48.50;;;;;;4993390;28;20365;-92
2022/07/20 01:36:08;;;;;;;1.65;0.68;;;20.90;48.70;;;;;;4984382;28;20054;-92
2022/07/20 01:38:34;;;;;;;5.45;0.82;;;20.90;48.90;;;;;;4974702;28;20527;-92
2022/07/20 01:40:59;;;;;;;8.00;0.93;;;20.90;49.10;;;;;;4975202;28;20037;-92
2022/07/20 01:43:25;;;;;;;2.25;0.82;;;20.80;48.80;;;;;;4975333;28;20526;-92
2022/07/20 01:45:51;;;;;;;6.47;1.25;;;20.80;48.90;;;;;;4975408;28;20424;-92
2022/07/20 01:48:16;;;;;;;1.80;0.80;;;20.80;48.90;;;;;;4974933;28;20026;-92
2022/07/20 01:50:42;;;;;;;1.90;0.70;;;20.70;49.20;;;;;;4974631;28;20034;-92
2022/07/20 01:53:08;;;;;;;2.88;0.82;;;20.80;49.60;;;;;;4975421;28;20027;-92
2022/07/20 01:55:34;;;;;;;7.63;0.80;;;20.70;49.80;;;;;;4976051;28;20027;-91
2022/07/20 01:58:00;;;;;;;4.88;1.00;;;20.60;49.80;;;;;;4975343;28;20033;-90
2022/07/20 02:00:26;;;;;;;1.38;0.60;;;20.60;49.50;;;;;;4975064;28;20416;-91
2022/07/20 02:02:52;;;;;;;2.67;0.85;;;20.60;49.40;;;;;;4975527;28;20114;-92
2022/07/20 02:05:18;;;;;;;7.53;1.00;;;20.60;49.80;;;;;;4974903;28;20065;-91
2022/07/20 02:07:45;;;;;;;4.60;1.40;;;20.60;49.80;;;;;;4974259;28;20539;-91
2022/07/20 02:10:13;;;;;;;4.97;1.58;;;20.60;49.80;;;;;;4973474;28;20037;-92
2022/07/20 02:12:39;;;;;;;2.88;0.93;;;20.60;49.80;;;;;;4973372;28;20031;-92
2022/07/20 02:15:07;;;;;;;2.10;0.80;;;20.50;49.60;;;;;;4978537;28;20509;-92
2022/07/20 02:17:32;;;;;;;8.65;0.95;;;20.50;49.40;;;;;;4994331;28;20026;-91
2022/07/20 02:19:58;;;;;;;3.03;0.60;;;20.60;49.60;;;;;;4995573;28;20037;-91
2022/07/20 02:22:24;;;;;;;1.63;0.63;;;20.60;50.40;;;;;;4993858;28;20080;-91
2022/07/20 02:24:50;;;;;;;7.97;1.10;;;20.60;49.90;;;;;;4974425;28;20125;-95
2022/07/20 02:27:16;;;;;;;4.97;0.98;;;20.60;50.60;;;;;;4973240;28;20041;-94
2022/07/20 02:29:42;;;;;;;8.73;0.55;;;20.60;50.00;;;;;;4973941;28;20557;-92
2022/07/20 02:32:07;;;;;;;2.00;0.77;;;20.70;49.90;;;;;;4986896;28;20029;-92
2022/07/20 02:34:33;;;;;;;1.27;0.43;;;20.70;49.70;;;;;;4991866;28;20026;-92
2022/07/20 02:36:58;;;;;;;6.20;1.27;;;20.70;49.70;;;;;;4992251;28;20144;-90
2022/07/20 02:39:24;;;;;;;3.33;0.80;;;20.70;49.60;;;;;;4992130;28;20085;-92
2022/07/20 02:41:50;;;;;;;8.20;0.88;;;20.70;49.40;;;;;;4992286;28;20034;-93
2022/07/20 02:44:16;;;;;;;4.95;0.65;;;20.70;49.70;;;;;;4977584;28;20488;-93
2022/07/20 02:46:41;;;;;;;3.67;0.90;;;20.70;49.80;;;;;;5001117;28;20042;-93
2022/07/20 02:49:07;;;;;;;11.63;1.13;;;20.70;49.90;;;;;;5011873;28;20218;-92
2022/07/20 02:51:33;;;;;;;6.28;1.10;;;20.60;50.00;;;;;;4993270;28;20145;-96
2022/07/20 02:53:59;;;;;;;6.45;0.70;;;20.60;50.20;;;;;;4991591;28;20023;-93
2022/07/20 02:56:25;;;;;;;6.53;0.65;;;20.50;50.00;;;;;;4975800;28;20023;-95
2022/07/20 02:58:50;;;;;;;6.85;0.90;;;20.50;49.90;;;;;;4973530;28;20027;-93
2022/07/20 03:01:16;;;;;;;5.25;1.10;;;20.50;49.90;;;;;;4972022;28;20050;-94
2022/07/20 03:03:42;;;;;;;7.72;0.85;;;20.50;49.90;;;;;;4972063;28;20022;-95
2022/07/20 03:06:09;;;;;;;8.23;1.13;;;20.50;50.00;;;;;;4972088;28;20488;-95
2022/07/20 03:08:35;;;;;;;4.28;0.75;;;20.60;50.10;;;;;;4972182;28;20411;-96
2022/07/20 03:11:00;;;;;;;4.63;0.80;;;20.60;50.40;;;;;;4976618;28;20026;-94
2022/07/20 03:13:26;;;;;;;4.00;1.10;;;20.60;50.60;;;;;;4977600;28;20109;-91
2022/07/20 03:15:54;;;;;;;9.32;1.25;;;20.60;50.90;;;;;;4971922;28;20043;-91
2022/07/20 03:18:20;;;;;;;11.70;1.25;;;20.60;51.20;;;;;;4972123;28;20026;-94
2022/07/20 03:20:45;;;;;;;1.85;0.70;;;20.60;51.30;;;;;;4971735;28;20218;-95
2022/07/20 03:23:12;;;;;;;4.63;1.13;;;20.50;51.10;;;;;;4979826;28;20528;-94
2022/07/20 03:25:37;;;;;;;9.32;0.93;;;20.50;51.20;;;;;;4974987;28;20035;-93
2022/07/20 03:28:03;;;;;;;7.28;0.90;;;20.50;51.30;;;;;;4972476;28;20395;-92
2022/07/20 03:30:29;;;;;;;9.85;0.90;;;20.40;51.70;;;;;;4971398;28;20118;-91
2022/07/20 03:32:56;;;;;;;3.38;1.65;;;20.30;52.10;;;;;;4971685;28;20026;-91
2022/07/20 03:35:22;;;;;;;6.43;1.00;;;20.30;52.40;;;;;;4971611;28;20122;-92
2022/07/20 03:37:48;;;;;;;10.35;1.00;;;20.30;52.40;;;;;;4976439;28;20077;-92
2022/07/20 03:40:14;;;;;;;3.90;0.82;;;20.30;52.20;;;;;;4972341;28;20031;-92
2022/07/20 03:42:40;;;;;;;22.40;1.50;;;20.30;51.90;;;;;;4972533;28;20033;-91
2022/07/20 03:45:06;;;;;;;4.25;0.85;;;20.40;51.60;;;;;;4975552;28;20462;-91
2022/07/20 03:47:33;;;;;;;4.63;1.05;;;20.50;51.30;;;;;;4994641;28;20062;-92
2022/07/20 03:49:59;;;;;;;6.00;0.90;;;20.60;51.50;;;;;;4994528;28;20081;-91
2022/07/20 03:52:24;;;;;;;4.57;1.02;;;20.70;51.70;;;;;;4994149;28;20621;-92
2022/07/20 03:54:50;;;;;;;5.32;0.90;;;20.80;51.60;;;;;;4994028;28;20022;-92
2022/07/20 03:57:15;;;;;;;9.52;0.80;;;20.80;51.70;;;;;;4993994;28;20039;-93
2022/07/20 03:59:41;;;;;;;6.97;1.10;;;20.80;51.70;;;;;;4983459;28;20027;-92
2022/07/20 04:02:07;;;;;;;8.77;1.05;;;20.80;51.80;;;;;;4974932;28;20042;-92
2022/07/20 04:04:32;;;;;;;5.93;1.38;;;20.90;51.80;;;;;;4974845;28;20054;-92
2022/07/20 04:06:58;;;;;;;7.50;1.15;;;21.10;51.40;;;;;;4974087;28;20074;-92
2022/07/20 04:12:11;;;;;;;6.47;1.85;;;21.30;51.30;;;;;;4975782;28;20517;-93
2022/07/20 04:14:37;;;;;;;8.10;1.90;;;21.50;50.30;;;;;;4973826;28;20018;-92
2022/07/20 04:17:03;;;;;;;9.10;2.50;;;21.60;50.00;;;;;;4975425;28;20014;-93
2022/07/20 04:19:29;;;;;;;7.40;2.70;;;21.80;49.50;;;;;;4974172;28;20483;-93
2022/07/20 04:22:01;;;;;;;7.70;2.65;;;22.00;49.20;;;;;;4974259;28;20506;-93
2022/07/20 04:24:27;;;;;;;8.60;3.00;;;22.20;49.10;;;;;;4991159;28;20040;-92
2022/07/20 04:26:53;;;;;;;11.07;2.33;;;22.30;49.00;;;;;;4993299;28;20109;-91
2022/07/20 04:29:20;;;;;;;3.08;1.58;;;22.40;48.90;;;;;;4993617;28;20027;-92
2022/07/20 04:31:46;;;;;;;13.68;1.55;;;22.60;48.20;;;;;;4982077;28;20047;-92
2022/07/20 04:34:12;;;;;;;3.70;1.42;;;22.80;48.40;;;;;;4974133;28;20039;-92
2022/07/20 04:36:38;;;;;;;3.80;1.65;;;23.00;48.00;;;;;;4984910;28;20853;-91
2022/07/20 04:39:04;;;;;;;5.68;1.65;;;23.10;48.00;;;;;;4993605;28;20125;-92
2022/07/20 04:41:29;;;;;;;4.68;2.13;;;23.20;48.50;;;;;;4984466;28;20027;-92
2022/07/20 04:43:55;;;;;;;5.15;1.63;;;23.30;48.60;;;;;;4973604;28;20023;-91
2022/07/20 04:46:20;;;;;;;6.88;2.08;;;23.40;48.30;;;;;;4978353;28;20026;-91
2022/07/20 04:48:46;;;;;;;6.15;2.63;;;23.50;48.30;;;;;;4977330;28;20035;-91
2022/07/20 04:51:12;;;;;;;5.82;2.30;;;23.60;47.50;;;;;;4973560;28;20423;-92
2022/07/20 04:53:37;;;;;;;9.13;4.57;;;23.70;48.10;;;;;;4973507;28;20053;-92
2022/07/20 04:56:03;;;;;;;7.72;3.10;;;23.80;47.90;;;;;;4973777;28;20034;-92
2022/07/20 04:58:31;;;;;;;8.82;3.20;;;23.90;46.70;;;;;;4973492;28;20502;-92
2022/07/20 05:00:58;;;;;;;11.55;2.70;;;24.10;46.00;;;;;;4974147;28;20435;-92
2022/07/20 05:03:24;;;;;;;8.20;1.92;;;24.30;45.40;;;;;;4973271;28;20034;-92
2022/07/20 05:05:50;;;;;;;6.88;1.75;;;24.50;45.40;;;;;;4973023;28;20035;-92
2022/07/20 05:08:16;;;;;;;2.22;1.02;;;24.60;45.50;;;;;;4973397;28;20034;-92
2022/07/20 05:10:41;;;;;;;6.95;1.30;;;24.70;45.20;;;;;;4973812;28;20050;-92
2022/07/20 05:13:07;;;;;;;6.93;1.08;;;24.90;45.00;;;;;;4973134;28;20030;-93
2022/07/20 05:15:32;;;;;;;11.77;1.70;;;25.00;44.70;;;;;;4973746;28;20082;-93
2022/07/20 05:17:58;;;;;;;3.35;1.52;;;25.10;44.20;;;;;;4973099;28;20030;-93
2022/07/20 05:20:24;;;;;;;4.18;1.42;;;25.30;43.70;;;;;;4972476;28;20027;-93
2022/07/20 05:22:50;;;;;;;4.55;1.60;;;25.60;43.30;;;;;;4969525;28;20070;-95
2022/07/20 05:25:15;;;;;;;3.97;1.73;;;25.90;42.80;;;;;;4972736;28;20618;-93
2022/07/20 05:27:41;;;;;;;4.00;1.30;;;26.10;42.30;;;;;;4965394;28;20043;-94
2022/07/20 05:30:07;;;;;;;2.92;1.42;;;26.20;41.90;;;;;;4953845;29;20019;-91
2022/07/20 05:32:33;;;;;;;11.80;2.17;;;26.30;41.00;;;;;;4968386;28;20646;-91
2022/07/20 05:35:00;;;;;;;8.98;1.50;;;26.40;40.70;;;;;;4963016;28;20086;-92
2022/07/20 05:37:26;;;;;;;11.30;1.63;;;26.40;40.40;;;;;;4962462;28;20077;-92
2022/07/20 05:39:52;;;;;;;6.93;1.20;;;26.50;40.50;;;;;;4968637;28;20026;-93
2022/07/20 05:42:17;;;;;;;5.72;1.83;;;26.60;40.90;;;;;;4971920;28;20031;-93
2022/07/20 05:44:43;;;;;;;4.97;1.58;;;26.60;41.20;;;;;;4973091;28;20404;-92
2022/07/20 05:47:09;;;;;;;6.75;1.90;;;26.70;40.80;;;;;;4972775;28;20494;-92
2022/07/20 05:49:38;;;;;;;3.15;1.50;;;26.80;40.20;;;;;;4972170;28;20019;-92
2022/07/20 05:52:04;;;;;;;4.78;1.70;;;26.90;39.70;;;;;;4982140;28;20034;-93
2022/07/20 05:54:30;;;;;;;5.35;2.03;;;27.10;39.40;;;;;;4992176;28;20855;-91
2022/07/20 05:56:56;;;;;;;3.75;1.80;;;27.50;38.70;;;;;;4991694;28;20038;-94
2022/07/20 05:59:22;;;;;;;5.78;2.55;;;28.30;38.00;;;;;;4991815;28;20019;-92
2022/07/20 06:01:47;;;;;;;4.20;1.83;;;29.20;37.10;;;;;;4991645;28;20054;-93
2022/07/20 06:04:13;;;;;;;5.28;1.58;;;30.10;35.40;;;;;;4992590;28;20031;-92
2022/07/20 06:06:39;;;;;;;16.05;2.38;;;31.40;34.20;;;;;;4991541;28;20065;-93
2022/07/20 06:09:06;;;;;;;12.50;2.33;;;32.30;32.00;;;;;;4991461;28;20061;-93
2022/07/20 06:11:33;;;;;;;7.00;1.80;;;33.10;31.20;;;;;;4991318;28;20026;-93
2022/07/20 06:13:59;;;;;;;7.95;2.20;;;33.60;30.20;;;;;;4992025;28;20026;-94
2022/07/20 06:16:25;;;;;;;8.32;1.83;;;34.30;29.80;;;;;;4993653;28;20026;-95
2022/07/20 06:18:51;;;;;;;6.88;2.28;;;35.10;29.10;;;;;;4992512;28;20466;-94
2022/07/20 06:21:16;;;;;;;11.82;2.30;;;35.80;27.90;;;;;;4993881;28;20026;-94
2022/07/20 06:23:42;;;;;;;6.60;1.92;;;36.50;27.40;;;;;;4992764;28;20602;-94
2022/07/20 06:26:08;;;;;;;10.10;2.08;;;37.20;27.00;;;;;;4993436;28;20034;-95
2022/07/20 06:28:34;;;;;;;4.13;1.80;;;37.60;26.60;;;;;;4993009;28;20031;-93
2022/07/20 06:30:59;;;;;;;5.38;1.70;;;38.10;26.00;;;;;;4990482;28;20376;-94
2022/07/20 06:33:25;;;;;;;5.60;2.13;;;38.60;25.50;;;;;;4974147;28;20230;-93
2022/07/20 06:35:51;;;;;;;15.68;1.90;;;39.00;24.80;;;;;;4972947;28;20113;-94
2022/07/20 06:38:17;;;;;;;5.82;2.08;;;39.00;24.50;;;;;;4974593;28;20062;-93
2022/07/20 06:40:43;;;;;;;8.30;1.42;;;38.90;24.70;;;;;;4987606;28;20162;-94
2022/07/20 06:43:08;;;;;;;7.45;1.85;;;39.10;24.50;;;;;;4988556;28;20063;-95
2022/07/20 06:45:34;;;;;;;7.95;2.08;;;39.00;24.20;;;;;;4991756;28;20094;-93
2022/07/20 06:48:00;;;;;;;9.07;1.73;;;39.10;24.30;;;;;;4990260;28;20102;-94
2022/07/20 06:50:26;;;;;;;15.13;2.05;;;39.30;24.10;;;;;;4981046;28;20042;-94
2022/07/20 06:52:51;;;;;;;7.65;1.92;;;39.50;24.30;;;;;;4973309;28;20459;-94
2022/07/20 06:55:17;;;;;;;7.78;2.38;;;39.60;24.20;;;;;;4972901;28;20030;-94
2022/07/20 06:57:44;;;;;;;7.25;2.00;;;39.70;24.60;;;;;;4972570;28;20059;-94
2022/07/20 07:00:11;;;;;;;11.98;2.35;;;39.70;24.00;;;;;;4972765;28;20562;-94
2022/07/20 07:02:36;;;;;;;10.40;2.20;;;40.10;23.80;;;;;;4971808;28;20022;-94
2022/07/20 07:05:03;;;;;;;11.27;2.22;;;40.10;23.70;;;;;;4972239;28;20096;-94
2022/07/20 07:07:29;;;;;;;12.10;2.30;;;40.10;23.10;;;;;;4977596;28;20045;-95
2022/07/20 07:09:55;;;;;;;7.07;2.15;;;40.20;23.20;;;;;;4991855;28;20026;-93
2022/07/20 07:12:20;;;;;;;9.45;1.73;;;40.20;23.00;;;;;;4995005;28;20121;-94
2022/07/20 07:14:46;;;;;;;4.60;1.92;;;39.90;22.70;;;;;;4995190;28;20022;-94
2022/07/20 07:17:12;;;;;;;7.50;2.47;;;39.70;23.20;;;;;;4975813;28;20053;-94
2022/07/20 07:19:39;;;;;;;4.53;1.60;;;39.60;23.50;;;;;;4975457;28;20019;-94
2022/07/20 07:22:05;;;;;;;15.23;2.30;;;39.90;23.30;;;;;;4976875;28;20102;-93
2022/07/20 07:24:30;;;;;;;7.43;1.67;;;40.20;23.10;;;;;;4974607;28;20129;-95
2022/07/20 07:26:56;;;;;;;7.07;1.48;;;40.40;23.30;;;;;;4976397;28;20042;-93
2022/07/20 07:29:22;;;;;;;11.10;1.77;;;40.40;23.10;;;;;;4975717;28;20035;-94
2022/07/20 07:31:47;;;;;;;6.00;1.65;;;40.00;22.80;;;;;;4976536;28;20038;-92
2022/07/20 07:34:13;;;;;;;9.38;2.35;;;40.10;23.00;;;;;;4975541;28;20534;-95
2022/07/20 07:36:39;;;;;;;11.73;2.13;;;40.60;23.30;;;;;;4976887;28;20034;-93
2022/07/20 07:39:04;;;;;;;6.97;2.50;;;40.30;23.10;;;;;;4975505;28;20502;-94
2022/07/20 07:41:30;;;;;;;8.85;1.90;;;39.80;23.10;;;;;;4976358;28;20687;-95
2022/07/20 07:43:56;;;;;;;14.30;2.35;;;39.60;23.40;;;;;;4974860;28;20459;-93
2022/07/20 07:46:21;;;;;;;13.75;2.10;;;39.70;23.60;;;;;;4986950;28;20507;-95
2022/07/20 07:48:47;;;;;;;10.32;2.28;;;39.80;22.90;;;;;;4993791;28;20030;-93
2022/07/20 07:51:13;;;;;;;14.38;2.10;;;39.80;23.10;;;;;;4990063;28;20023;-93
2022/07/20 07:53:38;;;;;;;12.77;2.80;;;39.90;23.10;;;;;;4974047;28;20084;-95
2022/07/20 07:56:04;;;;;;;9.70;3.00;;;40.00;23.00;;;;;;4975196;28;20062;-95
2022/07/20 07:58:30;;;;;;;12.18;2.53;;;40.00;23.30;;;;;;4974808;28;20033;-93
2022/07/20 08:00:55;;;;;;;14.30;2.60;;;39.90;23.60;;;;;;4974388;28;20141;-94
2022/07/20 08:03:22;;;;;;;6.53;2.20;;;40.20;23.70;;;;;;4974331;28;20070;-95
2022/07/20 08:05:48;;;;;;;8.38;2.58;;;40.60;23.70;;;;;;4973958;28;20031;-94
2022/07/20 08:08:16;;;;;;;4.22;2.10;;;40.80;23.20;;;;;;4974318;28;20038;-94
2022/07/20 08:10:43;;;;;;;22.48;3.05;;;41.00;23.10;;;;;;4974284;28;20490;-94
2022/07/20 08:13:09;;;;;;;4.20;2.70;;;41.10;23.00;;;;;;4975471;28;20118;-94
2022/07/20 08:15:36;;;;;;;8.90;2.42;;;41.20;23.30;;;;;;4973953;28;20611;-93
2022/07/20 08:18:01;;;;;;;9.43;3.65;;;41.20;23.20;;;;;;4976122;28;20596;-93
2022/07/20 08:20:27;;;;;;;14.38;3.85;;;41.30;22.90;;;;;;4975005;28;20023;-94
2022/07/20 08:22:53;;;;;;;12.65;2.85;;;41.30;22.80;;;;;;4972720;28;20130;-95
2022/07/20 08:25:20;;;;;;;14.00;2.83;;;41.30;23.00;;;;;;4974198;28;20511;-94
2022/07/20 08:27:46;;;;;;;9.90;2.60;;;41.00;22.90;;;;;;4973953;28;20086;-94
2022/07/20 08:30:12;;;;;;;7.28;2.63;;;41.20;23.10;;;;;;4975114;28;20057;-94
2022/07/20 08:32:38;;;;;;;9.15;3.35;;;41.50;22.90;;;;;;4975396;28;20035;-94
2022/07/20 08:35:05;;;;;;;13.30;2.85;;;41.50;22.70;;;;;;4973649;28;20027;-93
2022/07/20 08:37:30;;;;;;;14.45;2.75;;;41.50;23.30;;;;;;4975440;28;20051;-96
2022/07/20 08:39:56;;;;;;;6.50;2.35;;;41.70;23.00;;;;;;4983297;28;20114;-93
2022/07/20 08:42:22;;;;;;;7.35;3.17;;;41.90;22.90;;;;;;4994443;28;20026;-94
2022/07/20 08:44:48;;;;;;;15.70;3.15;;;42.20;22.90;;;;;;4991488;28;20027;-93
2022/07/20 08:47:15;;;;;;;9.68;2.30;;;42.00;22.80;;;;;;4981082;28;20035;-95
2022/07/20 08:49:45;;;;;;;15.38;3.20;;;42.00;22.30;;;;;;4973409;28;20031;-94
2022/07/20 08:52:11;;;;;;;10.43;2.75;;;41.70;22.70;;;;;;4973501;28;20031;-94
2022/07/20 08:54:37;;;;;;;13.05;2.92;;;41.80;23.00;;;;;;4973843;28;20570;-94
2022/07/20 08:57:08;;;;;;;13.45;2.97;;;42.10;22.60;;;;;;4973193;28;20125;-93
2022/07/20 08:59:33;;;;;;;13.68;3.22;;;42.00;22.90;;;;;;4973554;28;20579;-93
2022/07/20 09:02:02;;;;;;;11.38;2.67;;;42.20;22.90;;;;;;4973566;28;20141;-93
2022/07/20 09:04:28;;;;;;;11.32;3.30;;;42.20;22.80;;;;;;4973567;28;20492;-94
2022/07/20 09:06:53;;;;;;;13.85;3.08;;;42.00;23.10;;;;;;4973023;28;20142;-93
2022/07/20 09:09:20;;;;;;;9.98;2.58;;;41.90;23.00;;;;;;4973632;28;20115;-93
2022/07/20 09:11:46;;;;;;;14.40;2.63;;;42.00;23.00;;;;;;4973848;28;20093;-94
2022/07/20 09:14:12;;;;;;;13.50;2.70;;;42.30;22.80;;;;;;4973256;28;20019;-93
2022/07/20 09:16:46;;;;;;;19.02;3.05;;;42.40;22.60;;;;;;4973595;28;20488;-93
2022/07/20 09:19:16;;;;;;;10.52;2.65;;;42.30;22.80;;;;;;4973199;28;20031;-96
2022/07/20 09:21:43;;;;;;;8.43;2.63;;;42.30;22.70;;;;;;4974903;28;20511;-94
2022/07/20 09:24:10;;;;;;;10.88;2.25;;;42.20;23.00;;;;;;4973038;28;20077;-94
2022/07/20 09:26:37;;;;;;;11.20;2.97;;;42.30;22.40;;;;;;4972847;28;20396;-93
2022/07/20 09:29:05;;;;;;;13.45;2.20;;;42.20;22.70;;;;;;4972954;28;20049;-95
2022/07/20 09:31:36;;;;;;;10.75;2.30;;;42.50;22.50;;;;;;4972646;28;20034;-95
2022/07/20 09:34:06;;;;;;;8.77;2.40;;;42.60;22.50;;;;;;4981150;28;20102;-95
2022/07/20 09:36:37;;;;;;;14.27;2.30;;;42.70;22.30;;;;;;4980406;28;20270;-93
2022/07/20 09:39:13;;;;;;;5.18;1.90;;;42.80;22.50;;;;;;4978965;28;20081;-93
2022/07/20 09:41:41;;;;;;;3.38;2.10;;;42.80;22.50;;;;;;4977871;28;20033;-94
2022/07/20 09:44:19;;;;;;;5.95;2.42;;;42.80;22.30;;;;;;4975818;28;20046;-93
2022/07/20 09:46:44;;;;;;;8.70;2.55;;;42.80;22.40;;;;;;4973607;28;20038;-93
2022/07/20 09:49:11;;;;;;;9.27;2.78;;;43.00;22.60;;;;;;4975873;28;20022;-95
2022/07/20 09:51:46;;;;;;;10.63;2.47;;;43.20;22.20;;;;;;4976842;28;20041;-95
2022/07/20 09:54:18;;;;;;;4.95;2.85;;;43.20;21.80;;;;;;4972926;28;20022;-94
2022/07/20 09:56:49;;;;;;;11.02;2.67;;;43.50;21.80;;;;;;4973345;28;20097;-93
2022/07/20 09:59:16;;;;;;;7.25;2.33;;;43.40;21.60;;;;;;4973965;28;20023;-94
2022/07/20 10:01:50;;;;;;;3.85;2.40;;;43.10;21.80;;;;;;4972409;28;20059;-92
2022/07/20 10:04:16;;;;;;;4.60;2.33;;;43.40;21.60;;;;;;4969752;28;20230;-92
2022/07/20 10:06:45;;;;;;;3.13;2.33;;;43.40;22.00;;;;;;4971274;28;20089;-94
2022/07/20 10:09:14;;;;;;;6.15;1.58;;;43.20;21.70;;;;;;4972931;28;20084;-94
2022/07/20 10:11:40;;;;;;;4.30;1.73;;;43.10;21.60;;;;;;4973447;28;20030;-95
2022/07/20 10:14:06;;;;;;;5.60;2.33;;;42.50;21.70;;;;;;4972028;28;20281;-93
2022/07/20 10:16:58;;;;;;;4.57;2.15;;;42.00;22.00;;;;;;4971839;28;20027;-91
2022/07/20 10:19:46;;;;;;;11.02;2.28;;;41.40;22.20;;;;;;4970296;28;20046;-93
2022/07/20 10:22:11;;;;;;;4.50;1.95;;;40.90;22.70;;;;;;4977721;28;20138;-94
2022/07/20 10:24:39;;;;;;;5.80;2.05;;;40.30;22.30;;;;;;4973938;28;20149;-93
2022/07/20 10:27:12;;;;;;;6.80;2.80;;;40.00;23.30;;;;;;4972204;28;20050;-93
2022/07/20 10:29:43;;;;;;;6.65;1.90;;;39.60;23.40;;;;;;4994953;28;20076;-93
2022/07/20 10:32:23;;;;;;;6.82;2.15;;;39.40;23.50;;;;;;4994808;28;20039;-90
2022/07/20 10:34:50;;;;;;;4.13;2.20;;;39.10;23.60;;;;;;4983473;28;20458;-94
2022/07/20 10:37:26;;;;;;;9.70;2.40;;;38.90;23.50;;;;;;4976766;28;20050;-92
2022/07/20 10:40:10;;;;;;;19.67;3.10;;;38.80;23.70;;;;;;4977958;28;20428;-94
2022/07/20 10:42:37;;;;;;;11.32;2.17;;;38.60;23.80;;;;;;4973868;28;20055;-94
2022/07/20 10:45:23;;;;;;;4.10;2.28;;;38.40;23.80;;;;;;4973023;28;20113;-93
2022/07/20 10:47:52;;;;;;;5.35;2.95;;;38.20;23.70;;;;;;4982883;28;20135;-92
2022/07/20 10:50:31;;;;;;;3.10;2.00;;;38.00;23.90;;;;;;4977399;28;20080;-93
2022/07/20 10:53:16;;;;;;;4.60;2.05;;;37.80;24.30;;;;;;4972509;28;20042;-94
2022/07/20 10:55:42;;;;;;;9.10;2.15;;;37.70;24.50;;;;;;4973234;28;20023;-92
2022/07/20 10:58:12;;;;;;;2.95;1.85;;;37.40;24.90;;;;;;4974916;28;20042;-95
2022/07/20 11:00:39;;;;;;;11.57;2.40;;;37.40;25.20;;;;;;4989744;28;20066;-94
2022/07/20 11:03:14;;;;;;;18.35;2.00;;;37.40;25.10;;;;;;4980420;28;20066;-95
2022/07/20 11:05:40;;;;;;;10.57;2.25;;;37.30;24.70;;;;;;4979708;28;20027;-89
2022/07/20 11:08:08;;;;;;;4.95;1.95;;;37.10;24.80;;;;;;4981566;28;20097;-95
2022/07/20 11:10:35;;;;;;;6.32;2.03;;;36.90;24.90;;;;;;4986086;28;20090;-94
2022/07/20 11:13:10;;;;;;;6.30;1.58;;;36.90;24.90;;;;;;4989023;28;20138;-95
2022/07/20 11:15:47;;;;;;;4.32;2.28;;;36.90;25.10;;;;;;4976989;28;20030;-94
2022/07/20 11:18:22;;;;;;;3.40;1.77;;;37.00;24.90;;;;;;4974472;28;20027;-96
2022/07/20 11:20:59;;;;;;;8.00;1.88;;;36.90;24.70;;;;;;4960406;28;20034;-93
2022/07/20 11:23:43;;;;;;;5.05;2.00;;;36.90;25.00;;;;;;4976241;28;20041;-96
2022/07/20 11:26:12;;;;;;;8.55;2.55;;;36.90;25.20;;;;;;4977669;28;20030;-94
2022/07/20 11:28:48;;;;;;;7.90;2.33;;;37.10;25.20;;;;;;4978874;28;20035;-95
2022/07/20 11:31:16;;;;;;;4.93;1.90;;;37.00;24.50;;;;;;4974841;28;20050;-93
2022/07/20 11:33:45;;;;;;;4.57;2.00;;;37.00;24.40;;;;;;4979950;28;20054;-94
2022/07/20 11:36:31;;;;;;;5.82;1.83;;;36.90;24.70;;;;;;4976054;28;20018;-95
2022/07/20 11:39:02;;;;;;;6.10;1.60;;;37.00;24.90;;;;;;4979509;28;20031;-93
2022/07/20 11:41:30;;;;;;;5.32;1.67;;;37.10;25.00;;;;;;4996386;28;20141;-93
2022/07/20 11:43:57;;;;;;;4.88;1.63;;;37.10;25.10;;;;;;4998932;28;20069;-95
2022/07/20 11:46:25;;;;;;;5.30;1.77;;;37.20;25.00;;;;;;5002634;28;20035;-96
2022/07/20 11:49:02;;;;;;;5.10;1.85;;;37.30;24.90;;;;;;4997118;28;20117;-94
2022/07/20 11:51:30;;;;;;;3.90;1.75;;;37.20;24.90;;;;;;4997205;28;20031;-93
2022/07/20 11:53:56;;;;;;;7.70;1.75;;;37.20;25.20;;;;;;5001476;28;20631;-95
2022/07/20 11:56:25;;;;;;;4.68;1.75;;;37.30;24.90;;;;;;4980328;28;20038;-95
2022/07/20 11:58:53;;;;;;;6.13;2.03;;;37.40;25.10;;;;;;4986557;28;20018;-93
2022/07/20 12:01:25;;;;;;;6.35;1.55;;;37.40;24.70;;;;;;4986660;28;20130;-95
2022/07/20 12:03:56;;;;;;;3.97;1.58;;;37.40;24.80;;;;;;4986489;28;20026;-96
2022/07/20 12:06:24;;;;;;;3.17;1.80;;;37.60;24.50;;;;;;4983138;28;20034;-94
2022/07/20 12:09:11;;;;;;;6.60;2.10;;;37.60;24.50;;;;;;4992088;28;20034;-95
2022/07/20 12:11:56;;;;;;;5.97;1.73;;;37.60;24.50;;;;;;4987217;28;20050;-94
2022/07/20 12:14:36;;;;;;;4.47;1.80;;;37.60;24.30;;;;;;4992226;28;20492;-95
2022/07/20 12:17:20;;;;;;;7.80;1.95;;;37.60;24.30;;;;;;4982945;28;20094;-94
2022/07/20 12:19:49;;;;;;;5.43;1.63;;;37.60;24.40;;;;;;4970022;28;20054;-96
2022/07/20 12:22:20;;;;;;;10.82;2.22;;;37.50;24.00;;;;;;4972258;29;20087;-96
2022/07/20 12:25:10;;;;;;;7.30;1.75;;;37.50;24.30;;;;;;4972547;29;20500;-96
2022/07/20 12:27:37;;;;;;;5.72;1.60;;;37.40;24.10;;;;;;4978777;28;20140;-96
2022/07/20 12:30:43;;;;;;;7.68;1.95;;;37.40;24.30;;;;;;5005825;28;20025;-93
2022/07/20 12:33:11;;;;;;;;;;;37.40;24.30;;;;;;4928478;29;20038;-95
2022/07/20 12:35:39;;;;;;;4.50;1.73;;;37.30;24.20;;;;;;4926634;29;19915;-95
2022/07/20 12:38:05;;;;;;;6.43;2.00;;;37.40;24.40;;;;;;4953558;28;20031;-95
2022/07/20 12:40:34;;;;;;;4.75;2.15;;;37.50;24.20;;;;;;4990047;28;20026;-96
2022/07/20 12:43:01;;;;;;;3.58;1.80;;;37.50;24.30;;;;;;4979007;28;20492;-94
2022/07/20 12:45:27;;;;;;;3.25;1.67;;;37.50;24.30;;;;;;4985980;28;20022;-96
2022/07/20 12:47:53;;;;;;;5.38;1.92;;;37.50;24.10;;;;;;4997912;28;20018;-94
2022/07/20 12:50:19;;;;;;;5.40;2.03;;;37.50;24.00;;;;;;4988093;28;20027;-95
2022/07/20 12:52:44;;;;;;;7.72;1.65;;;37.40;24.00;;;;;;4994447;28;20062;-96